sensor_id;sensor_type;location;lat;lon;timestamp;pressure;altitude;pressure_sealevel;temperature;humidity
73821;BME280;62150;43.582;1.456;2023-06-22T06:23:53;100083.25;;;27.83;100.00
73821;BME280;62150;43.582;1.456;2023-06-22T06:26:21;100086.84;;;27.51;100.00
73821;BME280;62150;43.582;1.456;2023-06-22T06:28:56;100080.97;;;28.11;100.00
73821;BME280;62150;43.582;1.456;2023-06-22T06:31:24;100083.09;;;27.37;100.00
73821;BME280;62150;43.582;1.456;2023-06-22T06:33:53;100087.91;;;27.81;100.00
73821;BME280;62150;43.582;1.456;2023-06-22T06:36:21;100087.47;;;28.00;100.00
73821;BME280;62150;43.582;1.456;2023-06-22T06:38:49;100082.97;;;28.09;100.00
73821;BME280;62150;43.582;1.456;2023-06-22T06:41:27;100088.06;;;28.10;100.00
73821;BME280;62150;43.582;1.456;2023-06-22T06:43:54;100096.56;;;27.50;100.00
73821;BME280;62150;43.582;1.456;2023-06-22T06:46:22;100104.56;;;26.77;100.00
73821;BME280;62150;43.582;1.456;2023-06-22T06:48:49;100110.50;;;27.20;100.00
73821;BME280;62150;43.582;1.456;2023-06-22T06:51:17;100107.53;;;27.31;100.00
73821;BME280;62150;43.582;1.456;2023-06-22T06:53:44;100110.00;;;27.32;100.00
73821;BME280;62150;43.582;1.456;2023-06-22T06:56:11;100108.19;;;26.92;100.00
73821;BME280;62150;43.582;1.456;2023-06-22T06:58:41;100105.22;;;26.79;100.00
73821;BME280;62150;43.582;1.456;2023-06-22T07:01:11;100106.63;;;26.17;100.00
73821;BME280;62150;43.582;1.456;2023-06-22T07:03:39;100107.31;;;26.27;100.00
73821;BME280;62150;43.582;1.456;2023-06-22T07:06:06;100113.53;;;26.18;100.00
73821;BME280;62150;43.582;1.456;2023-06-22T07:08:33;100114.34;;;27.01;100.00
73821;BME280;62150;43.582;1.456;2023-06-22T07:11:03;100114.34;;;27.01;100.00
73821;BME280;62150;43.582;1.456;2023-06-22T07:13:30;100119.94;;;26.15;100.00
73821;BME280;62150;43.582;1.456;2023-06-22T07:15:59;100119.75;;;27.79;100.00
73821;BME280;62150;43.582;1.456;2023-06-22T07:18:26;100120.00;;;28.00;100.00
73821;BME280;62150;43.582;1.456;2023-06-22T07:20:54;100131.44;;;26.89;100.00
73821;BME280;62150;43.582;1.456;2023-06-22T07:23:22;100135.19;;;26.03;100.00
73821;BME280;62150;43.582;1.456;2023-06-22T07:25:49;100134.06;;;27.38;100.00
73821;BME280;62150;43.582;1.456;2023-06-22T07:28:17;100138.69;;;26.95;100.00
73821;BME280;62150;43.582;1.456;2023-06-22T07:30:45;100142.94;;;26.47;100.00
73821;BME280;62150;43.582;1.456;2023-06-22T07:33:14;100135.69;;;26.74;100.00
73821;BME280;62150;43.582;1.456;2023-06-22T07:35:43;100141.66;;;26.84;100.00
73821;BME280;62150;43.582;1.456;2023-06-22T07:38:10;100139.28;;;27.54;100.00
73821;BME280;62150;43.582;1.456;2023-06-22T07:40:38;100141.69;;;27.00;100.00
73821;BME280;62150;43.582;1.456;2023-06-22T07:43:05;100150.66;;;26.49;100.00
73821;BME280;62150;43.582;1.456;2023-06-22T07:45:33;100156.72;;;25.91;100.00
73821;BME280;62150;43.582;1.456;2023-06-22T07:48:01;100150.69;;;26.73;100.00
73821;BME280;62150;43.582;1.456;2023-06-22T07:50:30;100156.47;;;26.60;100.00
73821;BME280;62150;43.582;1.456;2023-06-22T07:52:57;100150.81;;;26.31;100.00
73821;BME280;62150;43.582;1.456;2023-06-22T07:55:25;100154.94;;;28.11;100.00
73821;BME280;62150;43.582;1.456;2023-06-22T07:57:52;100152.16;;;27.49;100.00
73821;BME280;62150;43.582;1.456;2023-06-22T08:00:20;100169.56;;;26.36;100.00
73821;BME280;62150;43.582;1.456;2023-06-22T08:02:48;100165.53;;;26.16;100.00
73821;BME280;62150;43.582;1.456;2023-06-22T08:05:16;100164.81;;;26.31;100.00
73821;BME280;62150;43.582;1.456;2023-06-22T08:07:45;100169.97;;;26.82;100.00
73821;BME280;62150;43.582;1.456;2023-06-22T08:10:12;100169.97;;;27.55;100.00
73821;BME280;62150;43.582;1.456;2023-06-22T08:12:41;100170.00;;;27.14;100.00
73821;BME280;62150;43.582;1.456;2023-06-22T08:15:09;100164.91;;;27.37;100.00
73821;BME280;62150;43.582;1.456;2023-06-22T08:17:37;100167.88;;;27.97;100.00
73821;BME280;62150;43.582;1.456;2023-06-22T08:20:05;100172.53;;;28.34;100.00
73821;BME280;62150;43.582;1.456;2023-06-22T08:22:35;100176.38;;;28.16;100.00
73821;BME280;62150;43.582;1.456;2023-06-22T08:25:06;100183.78;;;28.20;100.00
73821;BME280;62150;43.582;1.456;2023-06-22T08:27:33;100171.91;;;29.01;100.00
73821;BME280;62150;43.582;1.456;2023-06-22T08:30:02;100182.34;;;28.10;100.00
73821;BME280;62150;43.582;1.456;2023-06-22T08:32:33;100196.72;;;27.19;100.00
73821;BME280;62150;43.582;1.456;2023-06-22T08:35:01;100201.66;;;27.63;100.00
73821;BME280;62150;43.582;1.456;2023-06-22T08:37:29;100197.22;;;27.15;100.00
73821;BME280;62150;43.582;1.456;2023-06-22T08:39:58;100200.78;;;26.81;100.00
73821;BME280;62150;43.582;1.456;2023-06-22T08:42:28;100199.19;;;26.96;100.00
73821;BME280;62150;43.582;1.456;2023-06-22T08:44:56;100209.19;;;26.85;100.00
73821;BME280;62150;43.582;1.456;2023-06-22T08:47:24;100209.50;;;26.74;100.00
73821;BME280;62150;43.582;1.456;2023-06-22T08:49:52;100221.91;;;25.71;100.00
73821;BME280;62150;43.582;1.456;2023-06-22T08:52:19;100218.16;;;26.08;100.00
73821;BME280;62150;43.582;1.456;2023-06-22T08:54:47;100222.88;;;26.30;100.00
73821;BME280;62150;43.582;1.456;2023-06-22T08:57:14;100232.69;;;25.60;100.00
73821;BME280;62150;43.582;1.456;2023-06-22T08:59:43;100232.44;;;25.71;100.00
73821;BME280;62150;43.582;1.456;2023-06-22T09:02:11;100246.03;;;25.05;100.00
73821;BME280;62150;43.582;1.456;2023-06-22T09:04:38;100248.22;;;25.10;100.00
73821;BME280;62150;43.582;1.456;2023-06-22T09:07:06;100256.41;;;26.20;100.00
73821;BME280;62150;43.582;1.456;2023-06-22T09:09:34;100258.84;;;25.61;100.00
73821;BME280;62150;43.582;1.456;2023-06-22T09:12:01;100256.78;;;26.25;100.00
73821;BME280;62150;43.582;1.456;2023-06-22T09:14:29;100265.94;;;25.87;100.00
73821;BME280;62150;43.582;1.456;2023-06-22T09:16:58;100254.03;;;26.85;100.00
73821;BME280;62150;43.582;1.456;2023-06-22T09:19:25;100270.53;;;26.45;100.00
73821;BME280;62150;43.582;1.456;2023-06-22T09:21:53;100259.63;;;26.05;100.00
73821;BME280;62150;43.582;1.456;2023-06-22T09:24:21;100263.09;;;26.32;100.00
73821;BME280;62150;43.582;1.456;2023-06-22T09:26:48;100266.53;;;26.07;100.00
73821;BME280;62150;43.582;1.456;2023-06-22T09:29:16;100275.22;;;25.73;100.00
73821;BME280;62150;43.582;1.456;2023-06-22T09:31:44;100273.06;;;25.94;100.00
73821;BME280;62150;43.582;1.456;2023-06-22T09:34:13;100272.75;;;25.54;100.00
73821;BME280;62150;43.582;1.456;2023-06-22T09:36:41;100278.81;;;25.90;100.00
73821;BME280;62150;43.582;1.456;2023-06-22T09:39:09;100271.88;;;27.15;100.00
73821;BME280;62150;43.582;1.456;2023-06-22T09:41:36;100275.75;;;26.36;100.00
73821;BME280;62150;43.582;1.456;2023-06-22T09:44:04;100266.28;;;27.18;100.00
73821;BME280;62150;43.582;1.456;2023-06-22T09:46:32;100268.81;;;26.69;100.00
73821;BME280;62150;43.582;1.456;2023-06-22T09:48:59;100262.00;;;27.74;100.00
73821;BME280;62150;43.582;1.456;2023-06-22T09:51:28;100267.13;;;27.51;100.00
73821;BME280;62150;43.582;1.456;2023-06-22T09:53:55;100269.59;;;27.20;100.00
73821;BME280;62150;43.582;1.456;2023-06-22T09:56:24;100265.63;;;27.08;100.00
73821;BME280;62150;43.582;1.456;2023-06-22T09:58:57;100263.88;;;26.75;100.00
73821;BME280;62150;43.582;1.456;2023-06-22T10:01:25;100265.13;;;26.96;100.00
73821;BME280;62150;43.582;1.456;2023-06-22T10:03:53;100267.28;;;27.17;100.00
73821;BME280;62150;43.582;1.456;2023-06-22T10:06:22;100264.75;;;26.91;100.00
73821;BME280;62150;43.582;1.456;2023-06-22T10:08:52;100276.34;;;26.56;100.00
73821;BME280;62150;43.582;1.456;2023-06-22T10:11:20;100263.84;;;27.65;100.00
73821;BME280;62150;43.582;1.456;2023-06-22T10:13:53;100278.25;;;26.88;100.00
73821;BME280;62150;43.582;1.456;2023-06-22T10:16:20;100271.81;;;26.83;100.00
73821;BME280;62150;43.582;1.456;2023-06-22T10:18:48;100275.38;;;27.73;100.00
73821;BME280;62150;43.582;1.456;2023-06-22T10:21:15;100281.50;;;28.76;100.00
73821;BME280;62150;43.582;1.456;2023-06-22T10:23:43;100283.09;;;27.90;100.00
73821;BME280;62150;43.582;1.456;2023-06-22T10:26:12;100283.19;;;28.68;100.00
73821;BME280;62150;43.582;1.456;2023-06-22T10:28:40;100282.22;;;28.61;100.00
73821;BME280;62150;43.582;1.456;2023-06-22T10:31:07;100290.97;;;28.15;100.00
73821;BME280;62150;43.582;1.456;2023-06-22T10:33:35;100284.16;;;28.37;100.00
73821;BME280;62150;43.582;1.456;2023-06-22T10:36:03;100293.28;;;28.10;100.00
73821;BME280;62150;43.582;1.456;2023-06-22T10:38:30;100288.88;;;27.94;100.00
73821;BME280;62150;43.582;1.456;2023-06-22T10:40:58;100294.66;;;27.81;100.00
73821;BME280;62150;43.582;1.456;2023-06-22T10:43:27;100293.47;;;28.55;100.00
73821;BME280;62150;43.582;1.456;2023-06-22T10:45:54;100291.22;;;28.44;100.00
73821;BME280;62150;43.582;1.456;2023-06-22T10:48:22;100290.69;;;29.42;100.00
73821;BME280;62150;43.582;1.456;2023-06-22T10:50:51;100298.09;;;28.61;100.00
73821;BME280;62150;43.582;1.456;2023-06-22T10:53:19;100297.78;;;29.18;100.00
73821;BME280;62150;43.582;1.456;2023-06-22T10:55:46;100298.19;;;29.53;100.00
73821;BME280;62150;43.582;1.456;2023-06-22T10:58:14;100306.53;;;28.96;100.00
73821;BME280;62150;43.582;1.456;2023-06-22T11:00:43;100298.69;;;30.89;91.31
73821;BME280;62150;43.582;1.456;2023-06-22T11:03:10;100303.38;;;29.84;95.11
73821;BME280;62150;43.582;1.456;2023-06-22T11:05:40;100292.22;;;29.88;92.14
73821;BME280;62150;43.582;1.456;2023-06-22T11:08:08;100296.00;;;29.42;92.77
73821;BME280;62150;43.582;1.456;2023-06-22T11:10:37;100298.00;;;29.77;92.37
73821;BME280;62150;43.582;1.456;2023-06-22T11:13:05;100292.00;;;30.42;90.89
73821;BME280;62150;43.582;1.456;2023-06-22T11:15:35;100296.88;;;31.75;84.33
73821;BME280;62150;43.582;1.456;2023-06-22T11:18:05;100300.53;;;31.10;87.05
73821;BME280;62150;43.582;1.456;2023-06-22T11:20:33;100310.19;;;30.45;87.57
73821;BME280;62150;43.582;1.456;2023-06-22T11:23:04;100294.84;;;30.41;91.01
73821;BME280;62150;43.582;1.456;2023-06-22T11:25:32;100293.34;;;30.53;86.50
73821;BME280;62150;43.582;1.456;2023-06-22T11:28:01;100291.22;;;31.63;84.51
73821;BME280;62150;43.582;1.456;2023-06-22T11:30:29;100298.84;;;31.45;79.02
73821;BME280;62150;43.582;1.456;2023-06-22T11:32:58;100296.19;;;31.02;85.22
73821;BME280;62150;43.582;1.456;2023-06-22T11:35:27;100300.31;;;30.24;88.88
73821;BME280;62150;43.582;1.456;2023-06-22T11:37:54;100292.06;;;31.85;79.85
73821;BME280;62150;43.582;1.456;2023-06-22T11:40:24;100287.09;;;32.10;78.40
73821;BME280;62150;43.582;1.456;2023-06-22T11:42:51;100282.06;;;32.28;72.69
73821;BME280;62150;43.582;1.456;2023-06-22T11:45:22;100276.81;;;32.89;65.20
73821;BME280;62150;43.582;1.456;2023-06-22T11:47:49;100275.81;;;31.73;75.01
73821;BME280;62150;43.582;1.456;2023-06-22T11:50:17;100287.31;;;31.59;80.65
73821;BME280;62150;43.582;1.456;2023-06-22T11:52:46;100289.34;;;31.78;75.54
73821;BME280;62150;43.582;1.456;2023-06-22T11:55:13;100291.50;;;30.53;86.09
73821;BME280;62150;43.582;1.456;2023-06-22T11:57:54;100288.84;;;30.83;84.33
73821;BME280;62150;43.582;1.456;2023-06-22T12:00:22;100286.19;;;31.68;78.25
73821;BME280;62150;43.582;1.456;2023-06-22T12:02:50;100286.41;;;32.01;72.04
73821;BME280;62150;43.582;1.456;2023-06-22T12:05:19;100284.41;;;32.10;71.84
73821;BME280;62150;43.582;1.456;2023-06-22T12:07:49;100279.78;;;31.84;74.69
73821;BME280;62150;43.582;1.456;2023-06-22T12:10:17;100273.53;;;33.00;65.40
73821;BME280;62150;43.582;1.456;2023-06-22T12:12:44;100280.34;;;31.58;73.74
73821;BME280;62150;43.582;1.456;2023-06-22T12:15:12;100274.78;;;32.43;71.55
73821;BME280;62150;43.582;1.456;2023-06-22T12:17:40;100272.81;;;32.17;71.87
73821;BME280;62150;43.582;1.456;2023-06-22T12:20:08;100265.97;;;32.36;75.94
73821;BME280;62150;43.582;1.456;2023-06-22T12:22:36;100270.97;;;31.34;78.59
73821;BME280;62150;43.582;1.456;2023-06-22T12:25:06;100265.72;;;30.98;84.11
73821;BME280;62150;43.582;1.456;2023-06-22T12:27:34;100269.03;;;31.21;83.14
73821;BME280;62150;43.582;1.456;2023-06-22T12:30:02;100273.47;;;31.14;82.28
73821;BME280;62150;43.582;1.456;2023-06-22T12:32:32;100265.97;;;31.03;80.60
73821;BME280;62150;43.582;1.456;2023-06-22T12:34:59;100270.81;;;31.14;82.34
73821;BME280;62150;43.582;1.456;2023-06-22T12:37:27;100279.31;;;31.31;81.58
73821;BME280;62150;43.582;1.456;2023-06-22T12:39:56;100284.09;;;30.78;82.58
73821;BME280;62150;43.582;1.456;2023-06-22T12:42:25;100280.03;;;31.18;84.29
73821;BME280;62150;43.582;1.456;2023-06-22T12:44:54;100283.78;;;31.73;78.21
73821;BME280;62150;43.582;1.456;2023-06-22T12:47:21;100281.63;;;30.77;86.39
73821;BME280;62150;43.582;1.456;2023-06-22T12:49:49;100283.56;;;31.25;85.37
73821;BME280;62150;43.582;1.456;2023-06-22T12:52:16;100293.91;;;30.19;91.99
73821;BME280;62150;43.582;1.456;2023-06-22T12:54:44;100300.78;;;30.13;93.40
73821;BME280;62150;43.582;1.456;2023-06-22T12:57:11;100301.84;;;29.52;98.29
73821;BME280;62150;43.582;1.456;2023-06-22T12:59:41;100302.09;;;29.80;96.90
73821;BME280;62150;43.582;1.456;2023-06-22T13:02:08;100315.34;;;29.80;96.53
73821;BME280;62150;43.582;1.456;2023-06-22T13:04:36;100305.47;;;29.05;100.00
73821;BME280;62150;43.582;1.456;2023-06-22T13:07:06;100312.03;;;28.86;100.00
73821;BME280;62150;43.582;1.456;2023-06-22T13:09:35;100306.91;;;29.61;100.00
73821;BME280;62150;43.582;1.456;2023-06-22T13:12:03;100331.03;;;30.19;98.64
73821;BME280;62150;43.582;1.456;2023-06-22T13:14:31;100329.56;;;30.31;95.81
73821;BME280;62150;43.582;1.456;2023-06-22T13:17:00;100318.94;;;29.18;100.00
73821;BME280;62150;43.582;1.456;2023-06-22T13:19:27;100331.59;;;30.14;99.19
73821;BME280;62150;43.582;1.456;2023-06-22T13:21:58;100331.22;;;30.32;98.69
73821;BME280;62150;43.582;1.456;2023-06-22T13:24:31;100337.50;;;30.16;98.23
73821;BME280;62150;43.582;1.456;2023-06-22T13:26:58;100329.06;;;29.98;98.73
73821;BME280;62150;43.582;1.456;2023-06-22T13:29:26;100339.19;;;29.94;98.90
73821;BME280;62150;43.582;1.456;2023-06-22T13:31:53;100342.28;;;29.15;100.00
73821;BME280;62150;43.582;1.456;2023-06-22T13:34:24;100342.09;;;30.08;99.09
73821;BME280;62150;43.582;1.456;2023-06-22T13:36:52;100352.97;;;30.72;95.29
73821;BME280;62150;43.582;1.456;2023-06-22T13:39:19;100358.28;;;29.21;100.00
73821;BME280;62150;43.582;1.456;2023-06-22T13:41:47;100359.41;;;30.98;92.03
73821;BME280;62150;43.582;1.456;2023-06-22T13:44:14;100369.28;;;31.05;90.97
73821;BME280;62150;43.582;1.456;2023-06-22T13:46:42;100370.00;;;30.62;94.94
73821;BME280;62150;43.582;1.456;2023-06-22T13:49:09;100359.50;;;30.90;94.59
73821;BME280;62150;43.582;1.456;2023-06-22T13:51:38;100349.44;;;31.37;91.49
73821;BME280;62150;43.582;1.456;2023-06-22T13:54:05;100350.69;;;31.83;92.27
73821;BME280;62150;43.582;1.456;2023-06-22T13:56:33;100358.81;;;32.03;91.26
73821;BME280;62150;43.582;1.456;2023-06-22T13:59:00;100368.75;;;30.21;100.00
73821;BME280;62150;43.582;1.456;2023-06-22T14:01:28;100378.81;;;30.55;97.70
73821;BME280;62150;43.582;1.456;2023-06-22T14:03:56;100367.03;;;29.90;100.00
73821;BME280;62150;43.582;1.456;2023-06-22T14:06:23;100374.69;;;29.71;100.00
73821;BME280;62150;43.582;1.456;2023-06-22T14:08:52;100376.72;;;31.30;94.13
73821;BME280;62150;43.582;1.456;2023-06-22T14:11:20;100372.91;;;30.38;96.00
73821;BME280;62150;43.582;1.456;2023-06-22T14:13:47;100372.63;;;30.33;97.40
73821;BME280;62150;43.582;1.456;2023-06-22T14:16:15;100367.88;;;30.43;97.73
73821;BME280;62150;43.582;1.456;2023-06-22T14:18:42;100376.72;;;30.50;97.59
73821;BME280;62150;43.582;1.456;2023-06-22T14:21:10;100373.00;;;30.74;97.42
73821;BME280;62150;43.582;1.456;2023-06-22T14:23:37;100381.00;;;30.22;100.00
73821;BME280;62150;43.582;1.456;2023-06-22T14:26:06;100382.56;;;31.05;97.67
73821;BME280;62150;43.582;1.456;2023-06-22T14:28:34;100388.56;;;30.77;96.79
73821;BME280;62150;43.582;1.456;2023-06-22T14:31:01;100380.59;;;32.20;90.75
73821;BME280;62150;43.582;1.456;2023-06-22T14:33:29;100387.50;;;31.65;94.95
73821;BME280;62150;43.582;1.456;2023-06-22T14:35:56;100396.16;;;30.65;98.84
73821;BME280;62150;43.582;1.456;2023-06-22T14:38:24;100393.47;;;30.95;97.50
73821;BME280;62150;43.582;1.456;2023-06-22T14:40:51;100390.72;;;30.15;100.00
73821;BME280;62150;43.582;1.456;2023-06-22T14:43:20;100394.25;;;30.22;99.74
73821;BME280;62150;43.582;1.456;2023-06-22T14:45:47;100398.84;;;30.87;95.11
73821;BME280;62150;43.582;1.456;2023-06-22T14:48:15;100395.69;;;30.62;96.33
73821;BME280;62150;43.582;1.456;2023-06-22T14:50:42;100400.41;;;30.52;96.71
73821;BME280;62150;43.582;1.456;2023-06-22T14:53:10;100405.88;;;30.50;97.72
73821;BME280;62150;43.582;1.456;2023-06-22T14:55:38;100404.63;;;29.71;97.85
73821;BME280;62150;43.582;1.456;2023-06-22T14:58:05;100418.41;;;29.35;96.98
73821;BME280;62150;43.582;1.456;2023-06-22T15:00:34;100419.06;;;29.68;94.59
73821;BME280;62150;43.582;1.456;2023-06-22T15:03:03;100414.06;;;29.74;95.22
73821;BME280;62150;43.582;1.456;2023-06-22T15:05:32;100418.19;;;29.91;96.11
73821;BME280;62150;43.582;1.456;2023-06-22T15:08:00;100428.22;;;29.58;93.84
73821;BME280;62150;43.582;1.456;2023-06-22T15:10:27;100421.59;;;30.08;88.77
73821;BME280;62150;43.582;1.456;2023-06-22T15:12:55;100428.50;;;30.46;87.79
73821;BME280;62150;43.582;1.456;2023-06-22T15:15:22;100425.50;;;30.64;87.10
73821;BME280;62150;43.582;1.456;2023-06-22T15:17:51;100428.00;;;31.31;87.25
73821;BME280;62150;43.582;1.456;2023-06-22T15:20:19;100454.38;;;31.32;88.17
73821;BME280;62150;43.582;1.456;2023-06-22T15:22:46;100444.88;;;31.09;92.60
73821;BME280;62150;43.582;1.456;2023-06-22T15:25:14;100447.56;;;30.64;91.32
73821;BME280;62150;43.582;1.456;2023-06-22T15:27:41;100453.44;;;30.52;90.00
73821;BME280;62150;43.582;1.456;2023-06-22T15:30:09;100445.63;;;30.58;90.78
73821;BME280;62150;43.582;1.456;2023-06-22T15:32:37;100451.22;;;30.63;89.95
73821;BME280;62150;43.582;1.456;2023-06-22T15:35:06;100463.69;;;30.55;91.89
73821;BME280;62150;43.582;1.456;2023-06-22T15:37:34;100473.44;;;29.48;96.26
73821;BME280;62150;43.582;1.456;2023-06-22T15:40:01;100477.00;;;29.41;97.49
73821;BME280;62150;43.582;1.456;2023-06-22T15:42:30;100460.34;;;29.55;98.52
73821;BME280;62150;43.582;1.456;2023-06-22T15:44:57;100470.56;;;29.27;100.00
73821;BME280;62150;43.582;1.456;2023-06-22T15:47:25;100471.16;;;29.76;99.40
73821;BME280;62150;43.582;1.456;2023-06-22T15:49:52;100461.38;;;29.46;99.10
73821;BME280;62150;43.582;1.456;2023-06-22T15:52:21;100469.69;;;29.43;100.00
73821;BME280;62150;43.582;1.456;2023-06-22T15:54:49;100469.00;;;30.17;97.29
73821;BME280;62150;43.582;1.456;2023-06-22T15:57:20;100479.38;;;29.11;100.00
73821;BME280;62150;43.582;1.456;2023-06-22T15:59:48;100478.09;;;29.46;100.00
73821;BME280;62150;43.582;1.456;2023-06-22T16:02:16;100473.69;;;28.91;100.00
73821;BME280;62150;43.582;1.456;2023-06-22T16:04:43;100486.41;;;29.35;100.00
73821;BME280;62150;43.582;1.456;2023-06-22T16:07:11;100467.28;;;29.56;100.00
73821;BME280;62150;43.582;1.456;2023-06-22T16:09:40;100469.06;;;30.70;97.56
73821;BME280;62150;43.582;1.456;2023-06-22T16:12:08;100481.59;;;30.00;100.00
73821;BME280;62150;43.582;1.456;2023-06-22T16:14:36;100477.19;;;30.30;97.84
73821;BME280;62150;43.582;1.456;2023-06-22T16:17:04;100492.97;;;29.78;99.80
73821;BME280;62150;43.582;1.456;2023-06-22T16:19:31;100466.44;;;30.09;98.53
73821;BME280;62150;43.582;1.456;2023-06-22T16:21:59;100478.91;;;29.47;100.00
73821;BME280;62150;43.582;1.456;2023-06-22T16:24:26;100487.81;;;29.54;99.83
73821;BME280;62150;43.582;1.456;2023-06-22T16:26:56;100492.00;;;29.40;100.00
73821;BME280;62150;43.582;1.456;2023-06-22T16:29:23;100492.94;;;29.16;100.00
73821;BME280;62150;43.582;1.456;2023-06-22T16:31:51;100490.91;;;29.88;99.81
73821;BME280;62150;43.582;1.456;2023-06-22T16:34:18;100494.66;;;29.40;100.00
73821;BME280;62150;43.582;1.456;2023-06-22T16:36:46;100490.53;;;28.98;100.00
73821;BME280;62150;43.582;1.456;2023-06-22T16:39:14;100495.19;;;28.72;100.00
73821;BME280;62150;43.582;1.456;2023-06-22T16:41:41;100501.59;;;29.02;100.00
73821;BME280;62150;43.582;1.456;2023-06-22T16:44:12;100496.84;;;28.81;100.00
73821;BME280;62150;43.582;1.456;2023-06-22T16:46:40;100503.03;;;29.13;100.00
73821;BME280;62150;43.582;1.456;2023-06-22T16:49:07;100507.91;;;28.77;100.00
73821;BME280;62150;43.582;1.456;2023-06-22T16:51:35;100514.88;;;28.53;100.00
73821;BME280;62150;43.582;1.456;2023-06-22T16:54:03;100518.63;;;28.10;100.00
73821;BME280;62150;43.582;1.456;2023-06-22T16:56:31;100516.38;;;28.64;100.00
73821;BME280;62150;43.582;1.456;2023-06-22T16:58:59;100518.69;;;28.51;100.00
73821;BME280;62150;43.582;1.456;2023-06-22T17:01:29;100514.19;;;28.84;100.00
73821;BME280;62150;43.582;1.456;2023-06-22T17:04:04;100535.66;;;27.99;100.00
73821;BME280;62150;43.582;1.456;2023-06-22T17:06:33;100525.38;;;29.10;100.00
73821;BME280;62150;43.582;1.456;2023-06-22T17:09:03;100536.09;;;30.18;99.51
73821;BME280;62150;43.582;1.456;2023-06-22T17:11:31;100530.47;;;30.58;96.25
73821;BME280;62150;43.582;1.456;2023-06-22T17:13:58;100523.47;;;30.05;99.25
73821;BME280;62150;43.582;1.456;2023-06-22T17:16:36;100526.72;;;29.06;100.00
73821;BME280;62150;43.582;1.456;2023-06-22T17:19:05;100538.19;;;29.38;100.00
73821;BME280;62150;43.582;1.456;2023-06-22T17:21:33;100547.72;;;28.02;100.00
73821;BME280;62150;43.582;1.456;2023-06-22T17:24:02;100540.44;;;29.10;100.00
73821;BME280;62150;43.582;1.456;2023-06-22T17:26:31;100546.41;;;29.04;100.00
73821;BME280;62150;43.582;1.456;2023-06-22T17:28:58;100546.56;;;29.10;100.00
73821;BME280;62150;43.582;1.456;2023-06-22T17:31:43;100551.19;;;28.19;100.00
73821;BME280;62150;43.582;1.456;2023-06-22T17:34:14;100553.72;;;28.53;100.00
73821;BME280;62150;43.582;1.456;2023-06-22T17:36:43;100564.75;;;29.05;100.00
73821;BME280;62150;43.582;1.456;2023-06-22T17:39:11;100558.03;;;29.33;99.54
73821;BME280;62150;43.582;1.456;2023-06-22T17:41:41;100563.28;;;29.50;99.12
73821;BME280;62150;43.582;1.456;2023-06-22T17:44:09;100564.44;;;29.00;100.00
73821;BME280;62150;43.582;1.456;2023-06-22T17:46:41;100576.53;;;29.50;97.77
73821;BME280;62150;43.582;1.456;2023-06-22T17:49:10;100577.84;;;28.58;100.00
73821;BME280;62150;43.582;1.456;2023-06-22T17:51:41;100580.97;;;28.53;100.00
73821;BME280;62150;43.582;1.456;2023-06-22T17:54:09;100564.88;;;29.20;98.86
73821;BME280;62150;43.582;1.456;2023-06-22T17:56:38;100573.69;;;28.96;99.95
73821;BME280;62150;43.582;1.456;2023-06-22T17:59:06;100586.91;;;28.80;100.00
73821;BME280;62150;43.582;1.456;2023-06-22T18:01:35;100584.09;;;28.32;100.00
73821;BME280;62150;43.582;1.456;2023-06-22T18:04:09;100581.47;;;29.61;99.06
73821;BME280;62150;43.582;1.456;2023-06-22T18:06:38;100578.22;;;29.34;99.60
73821;BME280;62150;43.582;1.456;2023-06-22T18:09:07;100578.94;;;29.12;100.00
73821;BME280;62150;43.582;1.456;2023-06-22T18:11:36;100584.59;;;28.52;100.00
73821;BME280;62150;43.582;1.456;2023-06-22T18:14:07;100580.72;;;29.28;100.00
73821;BME280;62150;43.582;1.456;2023-06-22T18:16:35;100584.44;;;28.62;100.00
73821;BME280;62150;43.582;1.456;2023-06-22T18:19:03;100574.38;;;29.84;100.00
73821;BME280;62150;43.582;1.456;2023-06-22T18:21:33;100583.28;;;28.73;100.00
73821;BME280;62150;43.582;1.456;2023-06-22T18:24:00;100582.06;;;29.24;100.00
73821;BME280;62150;43.582;1.456;2023-06-22T18:26:28;100579.09;;;29.74;100.00
73821;BME280;62150;43.582;1.456;2023-06-22T18:28:56;100579.50;;;28.83;100.00
73821;BME280;62150;43.582;1.456;2023-06-22T18:31:24;100594.38;;;28.68;100.00
73821;BME280;62150;43.582;1.456;2023-06-22T18:33:53;100584.75;;;29.08;100.00
73821;BME280;62150;43.582;1.456;2023-06-22T18:36:23;100595.78;;;29.44;100.00
73821;BME280;62150;43.582;1.456;2023-06-22T18:38:54;100592.88;;;28.74;100.00
73821;BME280;62150;43.582;1.456;2023-06-22T18:41:32;100597.81;;;28.60;100.00
73821;BME280;62150;43.582;1.456;2023-06-22T18:44:00;100596.78;;;29.26;100.00
73821;BME280;62150;43.582;1.456;2023-06-22T18:46:32;100597.63;;;29.74;100.00
73821;BME280;62150;43.582;1.456;2023-06-22T18:49:13;100609.06;;;28.95;100.00
73821;BME280;62150;43.582;1.456;2023-06-22T18:51:51;100602.00;;;29.51;100.00
73821;BME280;62150;43.582;1.456;2023-06-22T18:54:22;100601.91;;;29.28;100.00
73821;BME280;62150;43.582;1.456;2023-06-22T18:56:54;100608.75;;;28.74;100.00
73821;BME280;62150;43.582;1.456;2023-06-22T18:59:47;100608.38;;;28.77;100.00
73821;BME280;62150;43.582;1.456;2023-06-22T19:02:33;100604.91;;;30.94;98.47
73821;BME280;62150;43.582;1.456;2023-06-22T19:05:08;100603.13;;;28.85;100.00
73821;BME280;62150;43.582;1.456;2023-06-22T19:07:57;100620.97;;;28.66;100.00
73821;BME280;62150;43.582;1.456;2023-06-22T19:10:27;100619.28;;;29.14;100.00
73821;BME280;62150;43.582;1.456;2023-06-22T19:12:56;100613.69;;;29.09;100.00